createdAt,value
2019-04-22T00:11:48.517Z,101837.44
2019-04-22T00:14:06.323Z,101839.14
2019-04-22T00:16:53.271Z,101848.22
2019-04-22T00:22:07.769Z,101843.09
2019-04-22T00:24:38.964Z,101846.53
2019-04-22T00:27:26.137Z,101853.72
2019-04-22T00:32:30.338Z,101848.94
2019-04-22T00:35:03.901Z,101846.94
2019-04-22T00:51:01.363Z,101851.64
2019-04-22T01:04:36.475Z,101862.12
2019-04-22T01:07:09.260Z,101870.94
2019-04-22T01:21:21.482Z,101864.16
2019-04-22T01:23:34.517Z,101863.23
2019-04-22T01:37:37.298Z,101852.62
2019-04-22T01:40:21.441Z,101856.63
2019-04-22T02:04:52.407Z,101869.37
2019-04-22T02:07:26.262Z,101865.74
2019-04-22T02:20:39.630Z,101874.70
2019-04-22T02:28:41.102Z,101872.17
2019-04-22T02:31:25.866Z,101886.68
2019-04-22T02:36:22.490Z,101887.40
2019-04-22T02:49:29.151Z,101897.45
2019-04-22T02:52:06.339Z,101897.39
2019-04-22T03:37:20.620Z,101916.38
2019-04-22T03:53:15.011Z,101946.45
2019-04-22T03:55:45.040Z,101940.21
2019-04-22T04:09:50.024Z,101948.27
2019-04-22T04:12:26.030Z,101950.81
2019-04-22T04:26:05.153Z,101955.48
2019-04-22T04:45:11.005Z,101973.48
2019-04-22T04:50:06.990Z,101971.43
2019-04-22T04:52:50.903Z,101969.80
2019-04-22T05:11:58.318Z,101978.70
2019-04-22T05:24:44.316Z,101980.76
2019-04-22T05:27:31.449Z,101983.16
2019-04-22T05:30:21.230Z,101978.95
2019-04-22T05:32:30.711Z,101980.30
2019-04-22T05:46:20.616Z,101976.02
2019-04-22T05:48:54.218Z,101977.34
2019-04-22T05:51:31.514Z,101973.14
2019-04-22T05:54:12.418Z,101972.33
2019-04-22T06:08:04.203Z,101971.31
2019-04-22T06:10:46.610Z,101975.70
2019-04-22T06:24:23.276Z,101975.23
2019-04-22T06:29:26.643Z,101981.37
2019-04-22T06:43:10.320Z,101981.73
2019-04-22T06:45:35.047Z,101977.14
2019-04-22T06:54:01.712Z,101967.58
2019-04-22T06:56:35.810Z,101967.94
2019-04-22T07:05:35.605Z,101960.62
2019-04-22T07:08:16.046Z,101962.61
2019-04-22T07:10:42.022Z,101957.78
2019-04-22T07:13:23.569Z,101962.45
2019-04-22T07:20:56.402Z,101968.02
2019-04-22T07:23:34.835Z,101962.39
2019-04-22T07:26:08.597Z,101978.58
2019-04-22T07:28:42.254Z,101987.89
2019-04-22T07:31:17.368Z,101976.23
2019-04-22T07:33:51.742Z,101979.36
2019-04-22T07:38:56.475Z,101992.42
2019-04-22T07:41:34.450Z,101984.14
2019-04-22T07:44:13.854Z,101980.91
2019-04-22T07:46:43.171Z,101985.50
2019-04-22T07:49:18.351Z,101987.13
2019-04-22T07:52:03.324Z,101983.86
2019-04-22T07:54:29.209Z,101984.09
2019-04-22T07:57:12.134Z,101979.44
2019-04-22T07:59:40.868Z,101985.77
2019-04-22T08:02:15.781Z,101985.91
2019-04-22T08:07:29.976Z,101984.67
2019-04-22T08:10:12.515Z,101982.59
2019-04-22T08:15:05.781Z,101981.84
2019-04-22T08:20:19.281Z,101975.58
2019-04-22T08:23:01.133Z,101973.05
2019-04-22T08:25:27.170Z,101974.75
2019-04-22T08:28:05.427Z,101973.36
2019-04-22T08:30:41.162Z,101971.96
2019-04-22T08:33:16.067Z,101965.28
2019-04-22T08:36:00.077Z,101964.06
2019-04-22T08:41:20.860Z,101966.01
2019-04-22T08:44:02.433Z,101956.09
2019-04-22T08:51:30.877Z,101945.62
2019-04-22T08:54:06.137Z,101947.12
2019-04-22T08:56:56.880Z,101946.69
2019-04-22T08:59:12.543Z,101940.24
2019-04-22T09:01:45.353Z,101944.80
2019-04-22T09:04:16.263Z,101938.65
2019-04-22T09:07:07.667Z,101936.94
2019-04-22T09:21:12.212Z,101947.09
2019-04-22T09:23:33.923Z,101944.13
2019-04-22T09:39:19.518Z,101946.86
2019-04-22T09:41:46.548Z,101943.31
2019-04-22T09:44:23.090Z,101949.92
2019-04-22T09:47:00.344Z,101935.82
2019-04-22T10:00:25.363Z,101937.41
2019-04-22T10:17:03.264Z,101935.84
2019-04-22T10:19:30.031Z,101939.36
2019-04-22T10:22:14.964Z,101936.47
2019-04-22T10:24:45.103Z,101934.38
2019-04-22T10:27:24.361Z,101933.59
2019-04-22T10:30:02.798Z,101932.92
2019-04-22T10:32:25.540Z,101927.67
2019-04-22T10:34:47.695Z,101928.91
2019-04-22T10:37:17.066Z,101929.15
2019-04-22T10:39:55.126Z,101927.59
2019-04-22T10:42:23.064Z,101926.22
2019-04-22T10:51:34.886Z,101923.65
2019-04-22T10:54:07.284Z,101921.80
2019-04-22T11:07:19.394Z,101916.66
2019-04-22T11:09:58.969Z,101919.01
2019-04-22T11:23:50.396Z,101895.91
2019-04-22T11:26:23.950Z,101898.55
2019-04-22T11:40:25.429Z,101883.63
2019-04-22T11:42:52.224Z,101885.91
2019-04-22T11:45:29.273Z,101881.32
2019-04-22T11:48:01.403Z,101878.73
2019-04-22T11:50:40.038Z,101875.35
2019-04-22T11:53:10.968Z,101875.91
2019-04-22T12:07:12.844Z,101865.34
2019-04-22T12:09:45.837Z,101861.97
2019-04-22T12:12:23.630Z,101875.18
2019-04-22T12:14:56.362Z,101866.28
2019-04-22T12:17:36.058Z,101858.80
2019-04-22T12:20:12.544Z,101856.70
2019-04-22T12:22:54.949Z,101864.99
2019-04-22T12:29:15.380Z,101854.60
2019-04-22T12:31:47.567Z,101854.31
2019-04-22T12:34:25.754Z,101849.48
2019-04-22T12:36:58.398Z,101856.53
2019-04-22T12:46:52.266Z,101857.27
2019-04-22T13:18:06.087Z,101838.14
2019-04-22T13:20:30.445Z,101838.70
2019-04-22T13:23:04.028Z,101837.45
2019-04-22T13:25:34.854Z,101843.27
2019-04-22T13:28:09.238Z,101840.18
2019-04-22T13:30:40.903Z,101831.38
2019-04-22T13:33:16.810Z,101834.92
2019-04-22T13:35:50.067Z,101838.42
2019-04-22T13:38:22.771Z,101834.41
2019-04-22T13:41:09.816Z,101825.39
2019-04-22T13:43:31.229Z,101825.92
2019-04-22T13:46:06.034Z,101823.05
2019-04-22T13:48:59.083Z,101832.71
2019-04-22T13:51:45.069Z,101831.73
2019-04-22T13:54:40.441Z,101838.88
2019-04-22T13:56:37.349Z,101836.09
2019-04-22T13:58:58.490Z,101838.05
2019-04-22T14:01:25.549Z,101843.61
2019-04-22T14:04:00.801Z,101829.56
2019-04-22T14:06:32.861Z,101824.56
2019-04-22T14:09:07.656Z,101822.63
2019-04-22T14:11:46.167Z,101817.38
2019-04-22T14:14:12.617Z,101823.66
2019-04-22T14:16:46.902Z,101822.44
2019-04-22T14:19:18.393Z,101830.31
2019-04-22T14:21:49.736Z,101822.39
2019-04-22T14:24:23.716Z,101821.52
2019-04-22T14:27:13.577Z,101816.87
2019-04-22T14:29:29.329Z,101826.55
2019-04-22T14:34:34.260Z,101816.27
2019-04-22T14:37:05.769Z,101827.97
2019-04-22T14:39:37.966Z,101827.03
2019-04-22T14:42:28.458Z,101828.70
2019-04-22T14:44:03.788Z,101820.51
2019-04-22T14:45:20.539Z,101829.41
2019-04-22T14:47:45.536Z,101834.78
2019-04-22T14:50:16.076Z,101829.62
2019-04-22T14:52:46.238Z,101832.30
2019-04-22T14:55:06.073Z,101838.28
2019-04-22T14:57:32.306Z,101831.88
2019-04-22T15:00:06.139Z,101831.31
2019-04-22T15:02:39.419Z,101832.89
2019-04-22T15:05:12.243Z,101840.44
2019-04-22T15:07:44.406Z,101832.91
2019-04-22T15:10:15.999Z,101837.11
2019-04-22T15:12:51.377Z,101832.33
2019-04-22T15:15:40.554Z,101832.20
2019-04-22T15:18:11.597Z,101835.77
2019-04-22T15:20:47.464Z,101842.58
2019-04-22T15:23:16.849Z,101838.70
2019-04-22T15:25:48.392Z,101828.97
2019-04-22T15:28:19.643Z,101839.73
2019-04-22T15:30:51.197Z,101840.78
2019-04-22T15:33:25.609Z,101844.83
2019-04-22T15:35:56.463Z,101838.05
2019-04-22T15:38:28.259Z,101843.14
2019-04-22T15:41:00.749Z,101842.70
2019-04-22T15:43:35.113Z,101840.56
2019-04-22T15:46:05.698Z,101840.64
2019-04-22T15:48:37.703Z,101845.83
2019-04-22T15:51:10.938Z,101841.24
2019-04-22T15:53:43.044Z,101853.30
2019-04-22T15:56:14.742Z,101850.59
2019-04-22T15:58:46.064Z,101853.28
2019-04-22T16:01:25.196Z,101854.65
2019-04-22T16:03:50.595Z,101850.69
2019-04-22T16:06:23.999Z,101854.04
2019-04-22T16:08:59.958Z,101848.73
2019-04-22T16:11:31.798Z,101854.75
2019-04-22T16:14:04.311Z,101856.53
2019-04-22T16:16:37.202Z,101864.39
2019-04-22T16:19:09.531Z,101863.76
2019-04-22T16:21:49.034Z,101867.37
2019-04-22T16:24:27.917Z,101801.16
2019-04-22T16:27:04.697Z,101868.97
2019-04-22T16:29:37.201Z,101871.77
2019-04-22T16:32:09.470Z,101870.34
2019-04-22T16:34:40.297Z,101873.98
2019-04-22T16:37:14.639Z,101873.80
2019-04-22T16:39:48.453Z,101877.77
2019-04-22T16:42:28.956Z,101881.68
2019-04-22T16:44:51.306Z,101874.86
2019-04-22T16:47:23.663Z,101881.10
2019-04-22T16:49:55.330Z,101877.91
2019-04-22T16:52:28.066Z,101886.88
2019-04-22T16:55:01.089Z,101885.84
2019-04-22T16:57:33.604Z,101890.80
2019-04-22T17:00:11.168Z,101893.92
2019-04-22T17:02:51.831Z,101890.52
2019-04-22T17:05:41.478Z,101899.83
2019-04-22T17:08:14.263Z,101901.44
2019-04-22T17:10:46.050Z,101899.08
2019-04-22T17:13:24.488Z,101902.64
2019-04-22T17:15:52.017Z,101902.97
2019-04-22T17:18:23.274Z,101906.61
2019-04-22T17:20:55.782Z,101914.99
2019-04-22T17:23:29.673Z,101909.05
2019-04-22T17:26:03.239Z,101920.65
2019-04-22T17:28:35.547Z,101915.86
2019-04-22T17:31:06.716Z,101924.45
2019-04-22T17:33:39.389Z,101924.56
2019-04-22T17:36:12.009Z,101927.64
2019-04-22T17:38:50.898Z,101928.34
2019-04-22T17:41:24.314Z,101932.17
2019-04-22T17:44:16.855Z,101932.81
2019-04-22T17:46:35.942Z,101935.37
2019-04-22T17:49:21.900Z,101943.59
2019-04-22T17:52:17.669Z,101933.86
2019-04-22T17:54:49.672Z,101940.84
2019-04-22T17:57:21.577Z,101943.17
2019-04-22T17:59:51.776Z,101942.98
2019-04-22T18:02:25.214Z,101942.39
2019-04-22T18:04:46.776Z,101943.75
2019-04-22T18:15:11.449Z,101952.65
2019-04-22T18:17:44.993Z,101955.97
2019-04-22T18:20:13.131Z,101963.45
2019-04-22T18:22:38.208Z,101955.61
2019-04-22T18:25:11.404Z,101957.47
2019-04-22T18:28:00.943Z,101961.69
2019-04-22T18:30:20.464Z,101954.56
2019-04-22T18:33:00.297Z,101953.67
2019-04-22T18:35:32.361Z,101963.45
2019-04-22T18:38:09.232Z,101958.57
2019-04-22T18:40:38.499Z,101956.53
2019-04-22T18:43:17.175Z,101958.52
2019-04-22T18:45:54.619Z,101957.01
2019-04-22T18:48:08.746Z,101958.13
2019-04-22T18:50:58.158Z,101961.32
2019-04-22T18:53:44.808Z,101962.71
2019-04-22T18:56:13.919Z,101954.75
2019-04-22T18:58:34.360Z,101962.49
2019-04-22T19:00:53.331Z,101959.50
2019-04-22T19:03:30.026Z,101962.64
2019-04-22T19:06:29.170Z,101963.74
2019-04-22T19:08:59.119Z,101962.02
2019-04-22T19:11:32.035Z,101957.70
2019-04-22T19:14:05.985Z,101964.84
2019-04-22T19:16:36.167Z,101966.58
2019-04-22T19:21:37.696Z,101971.42
2019-04-22T19:24:04.367Z,101959.35
2019-04-22T19:26:50.070Z,101962.39
2019-04-22T19:29:20.386Z,101968.20
2019-04-22T19:31:52.337Z,101961.55
2019-04-22T19:34:20.414Z,101963.42
2019-04-22T19:36:54.455Z,101965.52
2019-04-22T19:39:22.569Z,101968.98
2019-04-22T19:42:00.914Z,101975.44
2019-04-22T19:44:36.255Z,101974.28
2019-04-22T19:49:48.111Z,101975.75
2019-04-22T19:52:18.903Z,101980.27
2019-04-22T19:54:46.746Z,101973.70
2019-04-22T19:57:11.591Z,101978.91
2019-04-22T19:59:45.225Z,101984.51
2019-04-22T20:02:31.530Z,101985.59
2019-04-22T20:05:26.158Z,101986.00
2019-04-22T20:07:48.680Z,101988.28
2019-04-22T20:10:25.140Z,101982.95
2019-04-22T20:12:58.385Z,101989.23
2019-04-22T20:15:26.931Z,101993.59
2019-04-22T20:18:21.797Z,101989.75
2019-04-22T20:20:40.954Z,101992.37
2019-04-22T20:23:10.432Z,101995.52
2019-04-22T20:25:46.369Z,101996.06
2019-04-22T20:28:29.106Z,101998.70
2019-04-22T20:30:55.069Z,102002.54
2019-04-22T20:33:29.507Z,101998.40
2019-04-22T20:36:03.390Z,101999.97
2019-04-22T20:38:38.871Z,101997.38
2019-04-22T20:41:10.496Z,102002.05
2019-04-22T20:43:50.238Z,102002.39
2019-04-22T20:46:19.205Z,101999.80
2019-04-22T20:48:55.006Z,102004.86
2019-04-22T20:51:24.414Z,102013.00
2019-04-22T20:54:02.676Z,102014.22
2019-04-22T20:56:25.169Z,102016.64
2019-04-22T20:59:02.073Z,102015.61
2019-04-22T21:01:39.206Z,102020.81
2019-04-22T21:03:57.608Z,102024.95
2019-04-22T21:06:42.292Z,102023.56
2019-04-22T21:09:18.504Z,102033.62
2019-04-22T21:11:48.388Z,102021.69
2019-04-22T21:14:21.615Z,102023.23
2019-04-22T21:17:07.638Z,102024.27
2019-04-22T21:19:47.656Z,102025.66
2019-04-22T21:22:18.102Z,102029.48
2019-04-22T21:24:47.468Z,102036.39
2019-04-22T21:27:20.989Z,102036.55
2019-04-22T21:29:49.232Z,102036.89
2019-04-22T21:32:31.396Z,102036.91
2019-04-22T21:35:21.582Z,102043.63
2019-04-22T21:37:39.843Z,102037.39
2019-04-22T21:39:58.603Z,102040.16
2019-04-22T21:42:41.744Z,102037.94
2019-04-22T21:45:07.235Z,102042.44
2019-04-22T21:47:49.972Z,102048.50
2019-04-22T21:50:35.698Z,102041.20
2019-04-22T21:53:00.671Z,102042.76
2019-04-22T21:55:32.912Z,102043.97
2019-04-22T21:58:07.996Z,102043.45
2019-04-22T22:03:17.775Z,102036.50
2019-04-22T22:05:39.173Z,102043.94
2019-04-22T22:08:30.182Z,102033.34
2019-04-22T22:10:53.532Z,102041.48
2019-04-22T22:13:30.689Z,102042.30
2019-04-22T22:15:59.270Z,102035.20
2019-04-22T22:18:29.054Z,102041.26
2019-04-22T22:21:25.295Z,102035.38
2019-04-22T22:23:43.642Z,102035.38
2019-04-22T22:26:06.830Z,102039.31
2019-04-22T22:31:31.830Z,102035.97
2019-04-22T22:33:54.187Z,102039.07
2019-04-22T22:36:27.141Z,102041.31
2019-04-22T22:39:00.327Z,102041.79
2019-04-22T22:41:14.339Z,102048.34
2019-04-22T22:43:50.531Z,102043.16
2019-04-22T22:46:31.925Z,102046.95
2019-04-22T22:49:18.348Z,102046.73
2019-04-22T22:52:13.243Z,102046.20
2019-04-22T22:54:24.014Z,102044.64
2019-04-22T22:57:00.376Z,102048.77
2019-04-22T22:59:33.113Z,102045.09
2019-04-22T23:02:03.182Z,102041.53
2019-04-22T23:04:39.842Z,102050.26
2019-04-22T23:07:17.693Z,102055.34
2019-04-22T23:09:45.786Z,102055.74
2019-04-22T23:12:30.680Z,102054.59
2019-04-22T23:14:50.027Z,102054.44
2019-04-22T23:17:07.715Z,102052.92
2019-04-22T23:19:40.452Z,102051.66
2019-04-22T23:22:20.469Z,102054.24
2019-04-22T23:24:54.452Z,102047.58
2019-04-22T23:27:47.691Z,102056.73
2019-04-22T23:30:18.428Z,102052.92
2019-04-22T23:32:59.254Z,102064.31
2019-04-22T23:35:33.605Z,102057.41
2019-04-22T23:38:09.214Z,102059.48
2019-04-22T23:40:44.355Z,102067.80
2019-04-22T23:43:24.181Z,102061.75
2019-04-22T23:45:53.321Z,102067.97
2019-04-22T23:48:19.188Z,102064.34
2019-04-22T23:50:55.831Z,102063.12
2019-04-22T23:53:57.337Z,102062.25
2019-04-22T23:56:16.906Z,102065.53
2019-04-22T23:58:52.675Z,102068.11
